createdAt,value
2022-11-08T00:00:10.834Z,158525.94
2022-11-08T00:03:00.757Z,158527.25
2022-11-08T00:05:47.702Z,158547.25
2022-11-08T00:08:35.090Z,158543.22
2022-11-08T00:11:24.129Z,158535.25
2022-11-08T00:13:58.656Z,158557.91
2022-11-08T00:16:26.845Z,158567.22
2022-11-08T00:18:54.562Z,158560.56
2022-11-08T00:21:21.963Z,158560.56
2022-11-08T00:23:49.555Z,158568.56
2022-11-08T00:26:17.001Z,158565.91
2022-11-08T00:28:44.607Z,158556.53
2022-11-08T00:31:11.866Z,158560.56
2022-11-08T00:33:39.572Z,158555.22
2022-11-08T00:36:07.084Z,158579.22
2022-11-08T00:38:35.212Z,158569.88
2022-11-08T00:41:02.764Z,158555.22
2022-11-08T00:43:30.463Z,158559.25
2022-11-08T00:45:57.843Z,158556.53
2022-11-08T00:48:25.604Z,158580.56
2022-11-08T00:50:53.332Z,158576.53
2022-11-08T00:53:21.207Z,158571.19
2022-11-08T00:55:48.445Z,158584.50
2022-11-08T00:58:16.411Z,158587.22
2022-11-08T01:00:43.814Z,158591.19
2022-11-08T01:03:24.137Z,158596.50
2022-11-08T01:05:53.812Z,158599.16
2022-11-08T01:08:23.118Z,158611.16
2022-11-08T01:10:53.211Z,158609.84
2022-11-08T01:13:21.647Z,158616.50
2022-11-08T01:15:49.403Z,158631.16
2022-11-08T01:18:17.669Z,158623.16
2022-11-08T01:20:47.457Z,158623.16
2022-11-08T01:23:15.941Z,158624.50
2022-11-08T01:25:45.151Z,158629.84
2022-11-08T01:28:13.278Z,158633.81
2022-11-08T01:30:42.741Z,158637.81
2022-11-08T01:33:10.811Z,158632.47
2022-11-08T01:35:38.437Z,158640.47
2022-11-08T01:38:06.847Z,158645.81
2022-11-08T01:40:35.179Z,158648.44
2022-11-08T01:43:30.958Z,158660.44
2022-11-08T01:46:20.257Z,158661.78
2022-11-08T01:49:13.591Z,158668.44
2022-11-08T01:52:01.492Z,158672.47
2022-11-08T01:54:52.386Z,158671.13
2022-11-08T01:57:26.611Z,158672.47
2022-11-08T01:59:57.168Z,158672.47
2022-11-08T02:02:24.557Z,158691.13
2022-11-08T02:04:52.256Z,158693.78
2022-11-08T02:07:19.520Z,158696.41
2022-11-08T02:09:48.747Z,158688.44
2022-11-08T02:12:16.378Z,158692.44
2022-11-08T02:14:44.138Z,158699.13
2022-11-08T02:17:11.536Z,158695.09
2022-11-08T02:19:52.212Z,158715.09
2022-11-08T02:22:29.485Z,158715.09
2022-11-08T02:24:58.646Z,158727.09
2022-11-08T02:27:26.473Z,158733.75
2022-11-08T02:29:55.443Z,158740.41
2022-11-08T02:32:24.326Z,158725.72
2022-11-08T02:34:57.212Z,158744.38
2022-11-08T02:37:26.317Z,158741.75
2022-11-08T02:39:54.001Z,158736.41
2022-11-08T02:42:22.291Z,158745.72
2022-11-08T02:44:51.734Z,158747.03
2022-11-08T02:47:19.145Z,158745.72
2022-11-08T02:49:48.189Z,158749.72
2022-11-08T02:52:15.531Z,158747.03
2022-11-08T02:54:43.178Z,158761.75
2022-11-08T02:57:10.555Z,158764.38
2022-11-08T02:59:38.095Z,158755.06
2022-11-08T03:02:05.769Z,158772.38
2022-11-08T03:04:34.011Z,158776.41
2022-11-08T03:07:01.277Z,158787.09
2022-11-08T03:09:29.031Z,158764.38
2022-11-08T03:11:56.547Z,158784.44
2022-11-08T03:14:24.190Z,158779.03
2022-11-08T03:16:51.568Z,158775.03
2022-11-08T03:19:19.406Z,158769.72
2022-11-08T03:21:46.599Z,158765.72
2022-11-08T03:24:14.511Z,158784.44
2022-11-08T03:26:42.031Z,158764.38
2022-11-08T03:29:09.850Z,158757.72
2022-11-08T03:31:37.184Z,158753.69
2022-11-08T03:34:04.839Z,158753.69
2022-11-08T03:36:32.382Z,158757.72
2022-11-08T03:39:00.027Z,158769.72
2022-11-08T03:41:27.626Z,158755.06
2022-11-08T03:43:55.260Z,158735.06
2022-11-08T03:46:22.634Z,158745.72
2022-11-08T03:48:50.532Z,158752.38
2022-11-08T03:51:18.131Z,158740.41
2022-11-08T03:53:45.747Z,158748.41
2022-11-08T03:56:13.030Z,158744.38
2022-11-08T03:58:40.769Z,158732.38
2022-11-08T04:01:08.675Z,158732.38
2022-11-08T04:03:36.236Z,158736.41
2022-11-08T04:06:04.117Z,158736.41
2022-11-08T04:08:31.971Z,158720.44
2022-11-08T04:11:20.002Z,158705.78
2022-11-08T04:14:06.696Z,158700.44
2022-11-08T04:16:34.351Z,158705.78
2022-11-08T04:19:20.623Z,158713.75
2022-11-08T04:21:48.825Z,158707.09
2022-11-08T04:24:16.765Z,158721.75
2022-11-08T04:26:44.400Z,158717.72
2022-11-08T04:29:12.295Z,158716.41
2022-11-08T04:31:39.871Z,158717.72
2022-11-08T04:34:07.677Z,158735.06
2022-11-08T04:36:35.232Z,158733.75
2022-11-08T04:39:02.836Z,158728.41
2022-11-08T04:41:30.370Z,158729.75
2022-11-08T04:43:58.044Z,158740.41
2022-11-08T04:46:27.316Z,158752.38
2022-11-08T04:48:57.554Z,158755.06
2022-11-08T04:51:30.241Z,158745.72
2022-11-08T04:54:00.105Z,158744.38
2022-11-08T04:56:29.603Z,158739.03
2022-11-08T04:58:59.696Z,158749.72
2022-11-08T05:01:31.758Z,158753.69
2022-11-08T05:03:59.738Z,158753.69
2022-11-08T05:06:31.738Z,158760.38
2022-11-08T05:09:00.616Z,158745.72
2022-11-08T05:11:30.363Z,158752.38
2022-11-08T05:13:58.390Z,158752.38
2022-11-08T05:16:31.054Z,158753.69
2022-11-08T05:18:58.879Z,158737.72
2022-11-08T05:21:45.263Z,158732.38
2022-11-08T05:24:14.984Z,158736.41
2022-11-08T05:26:44.470Z,158721.75
2022-11-08T05:29:13.971Z,158728.41
2022-11-08T05:31:41.616Z,158703.06
2022-11-08T05:34:29.903Z,158709.75
2022-11-08T05:36:57.314Z,158707.09
2022-11-08T05:39:28.243Z,158712.44
2022-11-08T05:41:59.802Z,158717.72
2022-11-08T05:44:28.305Z,158711.06
2022-11-08T05:46:56.451Z,158713.75
2022-11-08T05:49:24.122Z,158703.06
2022-11-08T05:51:51.738Z,158703.06
2022-11-08T05:54:20.723Z,158707.09
2022-11-08T05:56:48.764Z,158707.09
2022-11-08T05:59:16.486Z,158708.41
2022-11-08T06:01:43.862Z,158707.09
2022-11-08T06:04:11.635Z,158705.78
2022-11-08T06:06:39.015Z,158717.72
2022-11-08T06:09:06.659Z,158723.06
2022-11-08T06:11:34.014Z,158735.06
2022-11-08T06:14:01.707Z,158740.41
2022-11-08T06:16:29.189Z,158741.75
2022-11-08T06:18:56.829Z,158756.41
2022-11-08T06:21:24.438Z,158756.41
2022-11-08T06:23:54.808Z,158764.38
2022-11-08T06:26:23.885Z,158767.03
2022-11-08T06:28:51.548Z,158771.06
2022-11-08T06:31:19.294Z,158772.38
2022-11-08T06:33:47.049Z,158767.03
2022-11-08T06:36:14.453Z,158788.41
2022-11-08T06:38:42.161Z,158787.09
2022-11-08T06:41:17.131Z,158788.41
2022-11-08T06:43:44.781Z,158788.41
2022-11-08T06:46:12.101Z,158797.75
2022-11-08T06:48:39.703Z,158812.41
2022-11-08T06:51:07.141Z,158824.38
2022-11-08T06:53:34.842Z,158827.06
2022-11-08T06:56:03.071Z,158844.38
2022-11-08T06:58:31.581Z,158852.38
2022-11-08T07:01:01.135Z,158865.72
2022-11-08T07:03:28.742Z,158869.72
2022-11-08T07:05:56.093Z,158877.72
2022-11-08T07:08:24.486Z,158891.06
2022-11-08T07:10:52.034Z,158879.03
2022-11-08T07:13:20.258Z,158888.41
2022-11-08T07:15:48.268Z,158916.41
2022-11-08T07:18:17.226Z,158903.06
2022-11-08T07:20:44.752Z,158913.69
2022-11-08T07:23:12.910Z,158900.38
2022-11-08T07:25:40.305Z,158925.72
2022-11-08T07:28:09.188Z,158947.03
2022-11-08T07:30:36.613Z,158945.72
2022-11-08T07:33:05.093Z,158948.38
2022-11-08T07:35:32.361Z,158951.00
2022-11-08T07:38:00.317Z,158952.38
2022-11-08T07:40:28.095Z,158992.34
2022-11-08T07:43:14.990Z,158985.69
2022-11-08T07:45:44.049Z,159012.38
2022-11-08T07:48:13.573Z,159040.38
2022-11-08T07:50:42.258Z,159053.69
2022-11-08T07:53:11.220Z,159080.38
2022-11-08T07:55:41.169Z,159123.06
2022-11-08T07:58:12.652Z,159195.09
2022-11-08T08:00:42.180Z,159257.81
2022-11-08T08:03:12.369Z,159309.88
2022-11-08T08:05:43.161Z,159339.28
2022-11-08T08:08:12.561Z,159381.97
2022-11-08T08:10:41.128Z,159444.72
2022-11-08T08:13:09.165Z,159496.78
2022-11-08T08:15:37.542Z,159542.16
2022-11-08T08:18:07.707Z,159570.19
2022-11-08T08:20:36.050Z,159619.59
2022-11-08T08:23:03.779Z,159666.38
2022-11-08T08:25:31.734Z,159701.16
2022-11-08T08:28:03.272Z,159738.53
2022-11-08T08:30:31.890Z,159779.97
2022-11-08T08:35:57.583Z,159858.78
2022-11-08T08:38:25.069Z,159921.63
2022-11-08T08:40:52.502Z,159961.72
2022-11-08T08:43:20.866Z,159995.16
2022-11-08T08:45:49.092Z,160040.59
2022-11-08T08:48:16.954Z,160088.78
2022-11-08T08:50:44.333Z,160181.06
2022-11-08T08:53:12.107Z,160274.69
2022-11-08T08:55:40.698Z,160358.97
2022-11-08T08:58:09.855Z,160437.97
2022-11-08T09:03:25.443Z,160579.84
2022-11-08T09:05:52.619Z,160763.34
2022-11-08T09:08:20.480Z,160849.06
2022-11-08T09:10:53.972Z,160936.19
2022-11-08T09:13:22.152Z,160956.31
2022-11-08T09:15:49.656Z,161050.16
2022-11-08T09:18:17.827Z,161072.94
2022-11-08T09:20:45.539Z,160992.53
2022-11-08T09:23:15.286Z,160831.69
2022-11-08T09:25:42.884Z,160636.09
2022-11-08T09:28:10.688Z,160549.06
2022-11-08T09:30:38.038Z,160452.69
2022-11-08T09:33:05.987Z,160373.69
2022-11-08T09:35:34.262Z,160298.78
2022-11-08T09:38:02.103Z,160237.25
2022-11-08T09:40:52.293Z,160179.72
2022-11-08T09:43:41.808Z,160159.66
2022-11-08T09:46:18.306Z,160135.56
2022-11-08T09:48:46.313Z,160170.34
2022-11-08T09:51:16.729Z,160167.69
2022-11-08T09:53:50.150Z,160148.94
2022-11-08T09:56:24.893Z,160127.53
2022-11-08T09:58:54.852Z,160139.59
2022-11-08T10:01:26.914Z,160151.66
2022-11-08T10:03:56.556Z,160159.66
2022-11-08T10:06:45.984Z,160165.03
2022-11-08T10:09:26.343Z,160159.66
2022-11-08T10:12:22.637Z,160148.94
2022-11-08T10:15:02.320Z,160163.66
2022-11-08T10:17:32.655Z,160175.69
2022-11-08T10:20:38.183Z,160162.31
2022-11-08T10:23:27.485Z,160170.34
2022-11-08T10:25:57.943Z,160139.59
2022-11-08T10:28:37.453Z,160138.28
2022-11-08T10:31:05.785Z,160175.69
2022-11-08T10:33:56.874Z,160177.03
2022-11-08T10:36:38.040Z,160178.41
2022-11-08T10:39:22.114Z,160215.84
2022-11-08T10:41:59.546Z,160241.22
2022-11-08T10:44:27.931Z,160277.38
2022-11-08T10:47:00.800Z,160309.47
2022-11-08T10:49:32.449Z,160309.47
2022-11-08T10:52:25.530Z,160306.81
2022-11-08T10:54:55.013Z,160312.19
2022-11-08T10:57:26.514Z,160321.53
2022-11-08T10:59:54.765Z,160336.25
2022-11-08T11:02:29.488Z,160324.19
2022-11-08T11:05:16.962Z,160330.88
2022-11-08T11:08:05.346Z,160344.25
2022-11-08T11:10:34.483Z,160304.09
2022-11-08T11:13:22.557Z,160316.16
2022-11-08T11:15:54.116Z,160336.25
2022-11-08T11:18:47.507Z,160336.25
2022-11-08T11:21:19.824Z,160352.28
2022-11-08T11:25:14.471Z,160392.50
2022-11-08T11:27:43.362Z,160407.19
2022-11-08T11:30:28.461Z,160446.00
2022-11-08T11:33:07.060Z,160450.03
2022-11-08T11:35:47.828Z,160443.34
2022-11-08T11:38:25.172Z,160455.41
2022-11-08T11:40:53.715Z,160468.78
2022-11-08T11:43:42.794Z,160482.16
2022-11-08T11:46:51.905Z,160487.50
2022-11-08T11:49:23.435Z,160529.00
2022-11-08T11:51:55.288Z,160537.00
2022-11-08T11:54:32.624Z,160495.50
2022-11-08T11:57:32.449Z,160541.06
2022-11-08T12:00:07.686Z,160531.69
2022-11-08T12:04:00.394Z,160537.00
2022-11-08T12:06:39.801Z,160549.06
2022-11-08T12:12:09.324Z,160553.13
2022-11-08T12:15:14.562Z,160547.75
2022-11-08T12:17:57.070Z,160571.81
2022-11-08T12:20:36.492Z,160555.78
2022-11-08T12:23:34.853Z,160534.34
2022-11-08T12:26:40.676Z,160542.38
2022-11-08T12:29:10.811Z,160557.09
2022-11-08T12:32:07.930Z,160557.09
2022-11-08T12:34:46.330Z,160602.66
2022-11-08T12:38:25.443Z,160558.44
2022-11-08T12:40:56.701Z,160535.69
2022-11-08T12:43:49.287Z,160531.69
2022-11-08T12:46:18.723Z,160541.06
2022-11-08T12:48:55.125Z,160529.00
2022-11-08T12:51:45.020Z,160519.63
2022-11-08T12:54:31.457Z,160512.94
2022-11-08T12:57:03.550Z,160507.56
2022-11-08T12:59:52.378Z,160495.50
2022-11-08T13:02:24.971Z,160495.50
2022-11-08T13:04:58.901Z,160508.91
2022-11-08T13:07:51.936Z,160516.94
2022-11-08T13:10:23.267Z,160499.53
2022-11-08T13:12:53.393Z,160483.50
2022-11-08T13:15:25.266Z,160494.19
2022-11-08T13:18:11.449Z,160503.59
2022-11-08T13:20:45.145Z,160488.88
2022-11-08T13:23:26.108Z,160454.06
2022-11-08T13:25:54.089Z,160456.72
2022-11-08T13:28:43.931Z,160452.69
2022-11-08T13:31:29.866Z,160423.25
2022-11-08T13:34:06.242Z,160419.25
2022-11-08T13:36:44.666Z,160427.28
2022-11-08T13:39:27.764Z,160429.94
2022-11-08T13:42:26.382Z,160419.25
2022-11-08T13:45:00.263Z,160405.88
2022-11-08T13:47:33.962Z,160387.13
2022-11-08T13:50:26.235Z,160367.00
2022-11-08T13:53:12.970Z,160340.22
2022-11-08T13:56:58.169Z,160342.94
2022-11-08T13:59:31.790Z,160317.50
2022-11-08T14:02:03.776Z,160309.47
2022-11-08T14:05:24.730Z,160301.44
2022-11-08T14:08:02.594Z,160276.00
2022-11-08T14:10:40.911Z,160257.31
2022-11-08T14:13:17.687Z,160234.59
2022-11-08T14:15:52.278Z,160210.47
2022-11-08T14:18:31.464Z,160190.41
2022-11-08T14:20:59.015Z,160190.41
2022-11-08T14:23:29.469Z,160179.72
2022-11-08T14:26:06.806Z,160177.03
2022-11-08T14:28:37.481Z,160157.00
2022-11-08T14:31:08.084Z,160147.63
2022-11-08T14:33:42.784Z,160123.56
2022-11-08T14:36:15.788Z,160094.16
2022-11-08T14:38:52.847Z,160068.72
2022-11-08T14:41:25.686Z,160040.59
2022-11-08T14:43:54.625Z,160008.53
2022-11-08T14:46:31.475Z,159964.38
2022-11-08T14:49:28.197Z,159935.00
2022-11-08T14:52:18.556Z,159920.28
2022-11-08T14:54:47.804Z,159876.19
2022-11-08T14:57:41.152Z,159845.44
2022-11-08T15:00:19.879Z,159820.06
2022-11-08T15:02:53.222Z,159785.31
2022-11-08T15:05:28.936Z,159762.63
2022-11-08T15:07:57.617Z,159727.88
2022-11-08T15:10:25.772Z,159699.81
2022-11-08T15:12:53.463Z,159677.06
2022-11-08T15:15:22.733Z,159650.34
2022-11-08T15:18:13.503Z,159602.25
2022-11-08T15:20:56.075Z,159582.22
2022-11-08T15:23:54.625Z,159564.88
2022-11-08T15:26:31.549Z,159530.16
2022-11-08T15:29:09.908Z,159496.78
2022-11-08T15:31:41.937Z,159470.06
2022-11-08T15:34:39.153Z,159442.03
2022-11-08T15:37:40.246Z,159419.34
2022-11-08T15:40:27.424Z,159381.97
2022-11-08T15:42:55.143Z,159348.59
2022-11-08T15:45:28.990Z,159328.56
2022-11-08T15:48:09.254Z,159292.56
2022-11-08T15:50:36.806Z,159277.88
2022-11-08T15:53:05.432Z,159236.47
2022-11-08T15:55:38.738Z,159247.16
2022-11-08T15:58:21.222Z,159217.75
2022-11-08T16:00:49.503Z,159208.44
2022-11-08T16:03:17.414Z,159179.09
2022-11-08T16:05:44.798Z,159165.75
2022-11-08T16:08:17.036Z,159149.75
2022-11-08T16:10:49.353Z,159127.03
2022-11-08T16:13:20.352Z,159111.03
2022-11-08T16:15:48.427Z,159104.38
2022-11-08T16:18:16.909Z,159077.69
2022-11-08T16:20:44.550Z,159079.06
2022-11-08T16:23:13.286Z,159073.72
2022-11-08T16:25:43.812Z,159063.03
2022-11-08T16:28:33.856Z,159056.34
2022-11-08T16:31:06.101Z,159044.38
2022-11-08T16:33:35.179Z,159020.34
2022-11-08T16:36:20.897Z,158997.69
2022-11-08T16:38:56.203Z,158996.38
2022-11-08T16:41:25.083Z,158981.72
2022-11-08T16:43:52.925Z,158963.03
2022-11-08T16:46:21.749Z,158948.38
2022-11-08T16:48:56.249Z,158933.72
2022-11-08T16:51:25.640Z,158919.03
2022-11-08T16:53:53.670Z,158923.00
2022-11-08T16:56:21.741Z,158917.72
2022-11-08T16:58:49.928Z,158917.72
2022-11-08T17:01:32.817Z,158928.34
2022-11-08T17:04:00.793Z,158928.34
2022-11-08T17:06:28.797Z,158935.03
2022-11-08T17:08:56.612Z,158943.03
2022-11-08T17:11:24.373Z,158949.69
2022-11-08T17:13:55.593Z,158944.41
2022-11-08T17:16:22.882Z,158963.03
2022-11-08T17:18:53.070Z,158971.03
2022-11-08T17:24:09.052Z,159035.03
2022-11-08T17:26:36.372Z,159060.38
2022-11-08T17:29:04.032Z,159068.38
2022-11-08T17:31:31.329Z,159089.72
2022-11-08T17:33:58.898Z,159093.72
2022-11-08T17:36:26.213Z,159097.69
2022-11-08T17:38:53.684Z,159096.38
2022-11-08T17:41:21.213Z,159084.38
2022-11-08T17:43:48.830Z,159100.41
2022-11-08T17:46:16.210Z,159105.69
2022-11-08T17:48:43.883Z,159115.06
2022-11-08T17:51:13.283Z,159096.38
2022-11-08T17:53:41.081Z,159099.03
2022-11-08T17:56:08.942Z,159092.41
2022-11-08T17:58:38.097Z,159087.06
2022-11-08T18:01:06.729Z,159081.72
2022-11-08T18:03:34.978Z,159071.06
2022-11-08T18:06:08.042Z,159057.72
2022-11-08T18:08:35.981Z,159051.06
2022-11-08T18:11:04.301Z,159043.06
2022-11-08T18:13:32.397Z,159035.03
2022-11-08T18:16:13.262Z,159041.69
2022-11-08T18:18:41.775Z,159040.38
2022-11-08T18:21:09.902Z,159041.69
2022-11-08T18:23:40.935Z,159032.38
2022-11-08T18:26:09.139Z,159043.06
2022-11-08T18:28:37.861Z,159047.03
2022-11-08T18:31:10.635Z,159044.38
2022-11-08T18:33:38.823Z,159056.34
2022-11-08T18:36:08.351Z,159083.03
2022-11-08T18:38:39.290Z,159087.06
2022-11-08T18:41:07.572Z,159101.72
2022-11-08T18:43:35.715Z,159105.69
2022-11-08T18:46:12.956Z,159147.06
2022-11-08T18:48:40.965Z,159148.38
2022-11-08T18:51:10.915Z,159164.44
2022-11-08T18:53:39.728Z,159188.41
2022-11-08T18:56:07.524Z,159197.78
2022-11-08T18:58:35.287Z,159197.78
2022-11-08T19:01:03.026Z,159187.09
2022-11-08T19:03:31.029Z,159212.47
2022-11-08T19:05:58.267Z,159213.78
2022-11-08T19:08:27.537Z,159213.78
2022-11-08T19:11:00.663Z,159221.78
2022-11-08T19:13:29.960Z,159211.09
2022-11-08T19:16:13.740Z,159212.47
2022-11-08T19:18:42.526Z,159203.09
2022-11-08T19:21:13.986Z,159245.78
2022-11-08T19:23:42.604Z,159229.78
2022-11-08T19:26:29.433Z,159213.78
2022-11-08T19:28:57.699Z,159223.09
2022-11-08T19:31:25.915Z,159212.47
2022-11-08T19:33:54.806Z,159223.09
2022-11-08T19:36:27.356Z,159229.78
2022-11-08T19:38:56.522Z,159215.09
2022-11-08T19:41:26.151Z,159212.47
2022-11-08T19:43:55.319Z,159211.09
2022-11-08T19:46:26.074Z,159213.78
2022-11-08T19:48:53.913Z,159207.09
2022-11-08T19:51:23.191Z,159195.09
2022-11-08T19:53:54.651Z,159188.41
2022-11-08T19:56:29.288Z,159200.44
2022-11-08T19:59:10.044Z,159187.09
2022-11-08T20:01:40.002Z,159175.06
2022-11-08T20:04:09.992Z,159184.44
2022-11-08T20:06:38.150Z,159185.75
2022-11-08T20:09:06.312Z,159184.44
2022-11-08T20:11:36.177Z,159175.06
2022-11-08T20:14:05.008Z,159171.09
2022-11-08T20:16:41.885Z,159148.38
2022-11-08T20:19:15.126Z,159157.75
2022-11-08T20:21:45.827Z,159172.41
2022-11-08T20:24:14.799Z,159149.75
2022-11-08T20:26:42.303Z,159128.41
2022-11-08T20:29:10.634Z,159132.38
2022-11-08T20:31:39.247Z,159133.72
2022-11-08T20:34:10.294Z,159127.03
2022-11-08T20:36:38.135Z,159112.38
2022-11-08T20:39:07.692Z,159093.72
2022-11-08T20:41:37.980Z,159104.38
2022-11-08T20:44:06.883Z,159104.38
2022-11-08T20:46:35.325Z,159104.38
2022-11-08T20:49:04.586Z,159101.72
2022-11-08T20:51:33.132Z,159088.38
2022-11-08T20:54:01.509Z,159075.03
2022-11-08T20:56:29.447Z,159053.69
2022-11-08T20:58:57.542Z,159064.41
2022-11-08T21:01:28.231Z,159029.72
2022-11-08T21:03:57.177Z,159029.72
2022-11-08T21:06:26.521Z,159033.69
2022-11-08T21:09:08.255Z,159033.69
2022-11-08T21:11:42.520Z,159008.38
2022-11-08T21:14:11.071Z,159007.00
2022-11-08T21:16:59.767Z,159017.72
2022-11-08T21:19:27.224Z,159016.38
2022-11-08T21:22:14.437Z,158992.34
2022-11-08T21:24:46.453Z,158983.03
2022-11-08T21:27:14.434Z,158995.06
2022-11-08T21:29:42.231Z,158979.00
2022-11-08T21:32:09.545Z,158971.03
2022-11-08T21:34:37.346Z,158960.38
2022-11-08T21:37:04.682Z,158979.00
2022-11-08T21:39:32.875Z,158984.34
2022-11-08T21:42:00.535Z,158981.72
2022-11-08T21:44:28.050Z,158980.38
2022-11-08T21:46:55.446Z,158992.34
2022-11-08T21:49:23.116Z,158984.34
2022-11-08T21:51:50.697Z,158968.38
2022-11-08T21:54:18.989Z,158957.69
2022-11-08T21:56:46.219Z,158944.41
2022-11-08T21:59:13.895Z,158951.00
2022-11-08T22:01:41.239Z,158952.38
2022-11-08T22:04:09.115Z,158964.34
2022-11-08T22:06:36.558Z,158960.38
2022-11-08T22:09:04.443Z,158944.41
2022-11-08T22:11:31.844Z,158945.72
2022-11-08T22:13:59.468Z,158944.41
2022-11-08T22:16:26.725Z,158936.34
2022-11-08T22:19:10.125Z,158933.72
2022-11-08T22:21:38.360Z,158936.34
2022-11-08T22:24:13.623Z,158920.38
2022-11-08T22:26:44.036Z,158913.69
2022-11-08T22:29:11.714Z,158916.41
2022-11-08T22:31:39.558Z,158899.03
2022-11-08T22:34:08.665Z,158903.06
2022-11-08T22:36:42.968Z,158867.09
2022-11-08T22:39:18.219Z,158855.06
2022-11-08T22:41:46.640Z,158845.69
2022-11-08T22:44:14.730Z,158833.75
2022-11-08T22:46:42.967Z,158831.03
2022-11-08T22:49:11.367Z,158827.06
2022-11-08T22:51:39.519Z,158812.41
2022-11-08T22:54:07.062Z,158825.75
2022-11-08T22:56:34.479Z,158816.38
2022-11-08T22:59:02.700Z,158805.75
2022-11-08T23:01:30.132Z,158800.41
2022-11-08T23:03:57.983Z,158809.72
2022-11-08T23:06:25.228Z,158795.06
2022-11-08T23:08:53.209Z,158781.75
2022-11-08T23:11:39.063Z,158792.41
2022-11-08T23:14:25.511Z,158784.44
2022-11-08T23:16:53.070Z,158784.44
2022-11-08T23:19:41.266Z,158791.09
2022-11-08T23:22:34.616Z,158775.03
2022-11-08T23:25:02.751Z,158803.06
2022-11-08T23:27:49.702Z,158788.41
2022-11-08T23:30:37.002Z,158776.41
2022-11-08T23:33:06.149Z,158780.41
2022-11-08T23:35:33.830Z,158768.34
2022-11-08T23:38:01.197Z,158775.03
2022-11-08T23:40:47.542Z,158767.03
2022-11-08T23:43:38.022Z,158767.03
2022-11-08T23:46:11.650Z,158759.03
2022-11-08T23:48:40.290Z,158756.41
2022-11-08T23:51:08.263Z,158736.41
2022-11-08T23:53:37.276Z,158729.75
2022-11-08T23:56:05.748Z,158724.41
2022-11-08T23:58:33.691Z,158715.09
